Time;durP1;ratioP1;P1;durP2;ratioP2;P2;SDS_P1;SDS_P2;PMS_P1;PMS_P2;Temp;Humidity;BMP_temperature;BMP_pressure;BME280_temperature;BME280_humidity;BME280_pressure;Samples;Min_cycle;Max_cycle;Signal;HPM_P1;HPM_P2
2023/04/19 00:02:03;;;;;;;;;7.50;7.50;;;;;;;;5249235;28;8779;-68
2023/04/19 00:04:36;;;;;;;;;5.00;5.00;;;;;;;;5249225;28;8857;-68
2023/04/19 00:07:26;;;;;;;;;9.80;9.80;;;;;;;;5249664;28;11543;-68
2023/04/19 00:09:57;;;;;;;;;8.20;8.20;;;;;;;;5226257;28;8789;-68
2023/04/19 00:12:28;;;;;;;;;9.25;9.25;;;;;;;;5227047;28;8844;-68
2023/04/19 00:14:59;;;;;;;;;17.80;17.80;;;;;;;;5238182;28;9618;-68
2023/04/19 00:17:30;;;;;;;;;13.00;13.00;;;;;;;;5247680;28;8789;-68
2023/04/19 00:20:02;;;;;;;;;12.80;12.40;;;;;;;;5247874;28;9943;-68
2023/04/19 00:22:37;;;;;;;;;15.40;15.40;;;;;;;;5247819;28;8782;-70
2023/04/19 00:25:08;;;;;;;;;9.20;9.20;;;;;;;;5215158;28;8925;-69
2023/04/19 00:27:39;;;;;;;;;13.50;13.50;;;;;;;;5226891;28;8915;-69
2023/04/19 00:30:10;;;;;;;;;10.00;10.00;;;;;;;;5226524;28;11504;-69
2023/04/19 00:32:42;;;;;;;;;7.60;7.60;;;;;;;;5227672;28;9539;-69
2023/04/19 00:35:13;;;;;;;;;7.40;7.40;;;;;;;;5226201;28;8825;-69
2023/04/19 00:37:44;;;;;;;;;7.20;7.20;;;;;;;;5228074;28;8809;-69
2023/04/19 00:40:34;;;;;;;;;9.40;9.40;;;;;;;;5226615;28;8778;-69
2023/04/19 00:43:08;;;;;;;;;9.80;9.80;;;;;;;;5226270;28;8832;-69
2023/04/19 00:45:39;;;;;;;;;6.20;6.20;;;;;;;;5210234;28;8770;-69
2023/04/19 00:48:29;;;;;;;;;6.40;5.20;;;;;;;;5234830;28;8787;-69
2023/04/19 00:51:00;;;;;;;;;9.40;9.20;;;;;;;;5230435;28;8775;-69
2023/04/19 00:53:50;;;;;;;;;9.20;9.20;;;;;;;;5221348;28;8838;-69
2023/04/19 00:56:25;;;;;;;;;6.40;6.40;;;;;;;;5226236;28;8908;-69
2023/04/19 00:58:58;;;;;;;;;7.00;7.00;;;;;;;;5226186;28;8830;-69
2023/04/19 01:01:28;;;;;;;;;8.00;8.00;;;;;;;;5209570;28;8801;-69
2023/04/19 01:04:00;;;;;;;;;4.00;4.00;;;;;;;;5226534;28;8809;-68
2023/04/19 01:06:32;;;;;;;;;9.00;9.00;;;;;;;;5226060;28;8790;-69
2023/04/19 01:09:03;;;;;;;;;7.40;7.40;;;;;;;;5225443;28;8807;-69
2023/04/19 01:11:53;;;;;;;;;5.00;5.00;;;;;;;;5247330;28;8798;-69
2023/04/19 01:14:24;;;;;;;;;5.25;5.25;;;;;;;;5227109;28;8790;-69
2023/04/19 01:16:56;;;;;;;;;5.80;5.80;;;;;;;;5225804;28;8833;-68
2023/04/19 01:19:27;;;;;;;;;12.00;12.00;;;;;;;;5209237;28;8782;-68
2023/04/19 01:21:58;;;;;;;;;1.00;1.00;;;;;;;;5209259;28;8916;-69
2023/04/19 01:24:30;;;;;;;;;9.00;9.00;;;;;;;;5225469;28;8814;-69
2023/04/19 01:27:20;;;;;;;;;4.60;4.60;;;;;;;;5232186;28;8817;-68
2023/04/19 01:29:51;;;;;;;;;6.00;6.00;;;;;;;;5246251;28;8791;-70
2023/04/19 01:32:24;;;;;;;;;21.00;21.00;;;;;;;;5238503;28;8806;-71
2023/04/19 01:34:55;;;;;;;;;28.60;28.60;;;;;;;;5225151;28;8877;-71
2023/04/19 01:37:26;;;;;;;;;19.40;18.40;;;;;;;;5209043;28;8790;-71
2023/04/19 01:39:57;;;;;;;;;13.60;13.60;;;;;;;;5225670;28;9477;-71
2023/04/19 01:42:28;;;;;;;;;8.50;8.50;;;;;;;;5208718;28;8936;-71
2023/04/19 01:45:01;;;;;;;;;4.00;4.00;;;;;;;;5224654;28;8813;-71
2023/04/19 01:47:35;;;;;;;;;7.00;7.00;;;;;;;;5235578;28;8852;-71
2023/04/19 01:50:25;;;;;;;;;4.00;4.00;;;;;;;;5245894;28;8831;-70
2023/04/19 01:52:57;;;;;;;;;7.40;7.40;;;;;;;;5214245;28;8801;-70
2023/04/19 01:55:28;;;;;;;;;3.60;3.60;;;;;;;;5208851;28;8874;-69
2023/04/19 01:57:59;;;;;;;;;1.40;1.40;;;;;;;;5208457;28;9555;-69
2023/04/19 02:00:30;;;;;;;;;8.40;7.60;;;;;;;;5224891;28;8778;-69
2023/04/19 02:03:20;;;;;;;;;4.60;4.60;;;;;;;;5226196;28;8836;-70
2023/04/19 02:05:51;;;;;;;;;6.00;6.00;;;;;;;;5224763;28;8774;-68
2023/04/19 02:08:24;;;;;;;;;35.60;34.20;;;;;;;;5229407;28;8818;-68
2023/04/19 02:10:55;;;;;;;;;7.80;7.80;;;;;;;;5226176;28;8853;-73
2023/04/19 02:13:26;;;;;;;;;7.00;6.00;;;;;;;;5227979;28;8791;-74
2023/04/19 02:15:57;;;;;;;;;5.40;5.40;;;;;;;;5220317;28;8801;-68
2023/04/19 02:18:29;;;;;;;;;0.00;0.00;;;;;;;;5207926;28;8798;-71
2023/04/19 02:21:00;;;;;;;;;5.20;5.20;;;;;;;;5225395;28;11419;-69
2023/04/19 02:23:31;;;;;;;;;2.20;2.20;;;;;;;;5224511;28;8825;-69
2023/04/19 02:26:21;;;;;;;;;3.20;3.20;;;;;;;;5225406;28;8858;-68
2023/04/19 02:28:52;;;;;;;;;6.00;6.00;;;;;;;;5224593;28;8785;-68
2023/04/19 02:31:23;;;;;;;;;4.80;4.20;;;;;;;;5208178;28;9366;-69
2023/04/19 02:33:54;;;;;;;;;5.00;5.00;;;;;;;;5207814;28;8910;-68
2023/04/19 02:36:25;;;;;;;;;2.80;2.00;;;;;;;;5224333;28;11478;-69
2023/04/19 02:38:58;;;;;;;;;6.80;6.60;;;;;;;;5224522;28;8790;-68
2023/04/19 02:41:29;;;;;;;;;3.40;3.40;;;;;;;;5207875;28;8793;-68
2023/04/19 02:44:19;;;;;;;;;5.00;5.00;;;;;;;;5215492;28;8811;-69
2023/04/19 02:46:50;;;;;;;;;3.40;3.40;;;;;;;;5245151;28;9551;-70
2023/04/19 02:49:41;;;;;;;;;5.00;5.00;;;;;;;;5241044;28;8806;-68
2023/04/19 02:52:14;;;;;;;;;3.40;3.40;;;;;;;;5222189;28;8794;-69
2023/04/19 02:54:45;;;;;;;;;3.80;3.80;;;;;;;;5224190;28;8833;-69
2023/04/19 02:57:16;;;;;;;;;6.00;6.00;;;;;;;;5209762;28;8792;-68
2023/04/19 02:59:49;;;;;;;;;5.00;5.00;;;;;;;;5229946;28;8801;-68
2023/04/19 03:02:20;;;;;;;;;0.00;0.00;;;;;;;;5228292;28;8797;-68
2023/04/19 03:04:51;;;;;;;;;1.80;1.80;;;;;;;;5241719;28;8819;-68
2023/04/19 03:07:22;;;;;;;;;2.00;2.00;;;;;;;;5249424;28;9520;-68
2023/04/19 03:09:54;;;;;;;;;10.80;10.80;;;;;;;;5247513;28;9610;-69
2023/04/19 03:12:25;;;;;;;;;3.20;3.20;;;;;;;;5227867;28;8794;-70
2023/04/19 03:14:56;;;;;;;;;4.60;4.60;;;;;;;;5198963;28;8793;-68
2023/04/19 03:17:28;;;;;;;;;1.00;0.60;;;;;;;;5244974;28;8851;-68
2023/04/19 03:19:59;;;;;;;;;2.20;2.20;;;;;;;;5211597;28;8798;-69
2023/04/19 03:22:31;;;;;;;;;5.00;5.00;;;;;;;;5229255;28;8781;-68
2023/04/19 03:25:20;;;;;;;;;2.00;2.00;;;;;;;;5248538;28;8803;-68
2023/04/19 03:27:59;;;;;;;;;2.20;2.20;;;;;;;;5232211;28;8783;-68
2023/04/19 03:30:49;;;;;;;;;3.00;3.00;;;;;;;;5234630;28;8856;-68
2023/04/19 03:33:20;;;;;;;;;6.80;6.00;;;;;;;;5249528;28;8771;-68
2023/04/19 03:35:52;;;;;;;;;5.80;5.80;;;;;;;;5231724;28;8772;-68
2023/04/19 03:38:23;;;;;;;;;6.60;6.00;;;;;;;;5227427;28;8790;-69
2023/04/19 03:41:23;;;;;;;;;40.80;36.60;;;;;;;;5227517;28;8797;-68
2023/04/19 03:44:21;;;;;;;;;23.00;22.60;;;;;;;;5241277;28;9518;-68
2023/04/19 03:46:52;;;;;;;;;53.20;43.80;;;;;;;;5248129;28;8786;-68
2023/04/19 03:49:27;;;;;;;;;10.20;10.00;;;;;;;;5248106;28;8787;-68
2023/04/19 03:52:17;;;;;;;;;6.00;6.00;;;;;;;;5249141;28;8783;-68
2023/04/19 03:54:49;;;;;;;;;7.00;7.00;;;;;;;;5231587;28;8863;-68
2023/04/19 03:57:35;;;;;;;;;9.40;9.40;;;;;;;;5227460;28;8814;-68
2023/04/19 04:00:13;;;;;;;;;7.00;7.00;;;;;;;;5210510;28;8782;-68
2023/04/19 04:02:46;;;;;;;;;45.60;41.80;;;;;;;;5228077;28;8916;-70
2023/04/19 04:05:17;;;;;;;;;41.60;38.20;;;;;;;;5228576;28;8795;-70
2023/04/19 04:07:48;;;;;;;;;25.20;25.20;;;;;;;;5228722;28;8840;-70
2023/04/19 04:10:19;;;;;;;;;20.20;19.40;;;;;;;;5210865;28;8794;-68
2023/04/19 04:12:51;;;;;;;;;7.00;7.00;;;;;;;;5226908;28;8800;-68
2023/04/19 04:15:30;;;;;;;;;5.20;5.20;;;;;;;;5227376;28;8809;-75
2023/04/19 04:18:04;;;;;;;;;6.40;6.40;;;;;;;;5226864;28;8797;-75
2023/04/19 04:20:35;;;;;;;;;3.80;3.80;;;;;;;;5210696;28;8808;-76
2023/04/19 04:23:13;;;;;;;;;6.00;6.00;;;;;;;;5227893;28;8825;-76
2023/04/19 04:25:59;;;;;;;;;4.00;4.00;;;;;;;;5234444;28;9624;-76
2023/04/19 04:28:50;;;;;;;;;3.40;3.40;;;;;;;;5230154;28;8791;-75
2023/04/19 04:31:24;;;;;;;;;5.00;5.00;;;;;;;;5194079;28;8778;-75
2023/04/19 04:33:57;;;;;;;;;3.20;3.20;;;;;;;;5220323;28;8858;-75
2023/04/19 04:36:30;;;;;;;;;5.00;5.00;;;;;;;;5230340;28;8814;-75
2023/04/19 04:39:03;;;;;;;;;3.20;3.20;;;;;;;;5230794;28;8791;-76
2023/04/19 04:41:35;;;;;;;;;2.40;2.40;;;;;;;;5230836;28;9593;-75
2023/04/19 04:44:08;;;;;;;;;2.00;2.00;;;;;;;;5214283;28;8810;-75
2023/04/19 04:46:42;;;;;;;;;2.80;2.80;;;;;;;;5230982;28;8759;-75
2023/04/19 04:49:33;;;;;;;;;4.00;4.00;;;;;;;;5216017;28;8924;-75
2023/04/19 04:52:07;;;;;;;;;4.00;4.00;;;;;;;;5225474;28;8786;-76
2023/04/19 04:54:45;;;;;;;;;4.00;4.00;;;;;;;;5228279;28;9544;-77
2023/04/19 04:57:26;;;;;;;;;1.80;1.80;;;;;;;;5214220;28;8825;-77
2023/04/19 04:59:59;;;;;;;;;2.00;2.00;;;;;;;;5213642;28;8779;-76
2023/04/19 05:02:37;;;;;;;;;1.40;1.40;;;;;;;;5214999;28;8798;-76
2023/04/19 05:05:12;;;;;;;;;4.00;4.00;;;;;;;;5230172;28;8783;-76
2023/04/19 05:07:45;;;;;;;;;5.00;4.60;;;;;;;;5230740;28;8798;-79
2023/04/19 05:10:17;;;;;;;;;3.00;3.00;;;;;;;;5246857;28;8918;-79
2023/04/19 05:12:52;;;;;;;;;4.00;3.60;;;;;;;;5223552;28;8813;-79
2023/04/19 05:15:25;;;;;;;;;2.40;2.40;;;;;;;;5211879;28;8868;-79
2023/04/19 05:18:00;;;;;;;;;3.20;3.20;;;;;;;;5228665;28;8767;-79
2023/04/19 05:20:35;;;;;;;;;3.00;3.00;;;;;;;;5225050;28;9564;-80
2023/04/19 05:23:20;;;;;;;;;3.60;3.60;;;;;;;;5193177;28;9567;-80
2023/04/19 05:25:54;;;;;;;;;7.40;7.40;;;;;;;;5236079;28;8822;-79
2023/04/19 05:28:29;;;;;;;;;8.00;8.00;;;;;;;;5212381;28;8802;-80
2023/04/19 05:31:21;;;;;;;;;2.00;2.00;;;;;;;;5220730;28;8829;-79
2023/04/19 05:34:09;;;;;;;;;2.40;2.40;;;;;;;;5210515;28;8830;-71
2023/04/19 05:37:01;;;;;;;;;2.20;2.20;;;;;;;;5211106;28;8790;-80
2023/04/19 05:39:33;;;;;;;;;4.00;4.00;;;;;;;;5213136;28;8784;-80
2023/04/19 05:42:05;;;;;;;;;3.40;3.40;;;;;;;;5197195;28;8808;-80
2023/04/19 05:44:37;;;;;;;;;4.00;3.20;;;;;;;;5208731;28;8979;-79
2023/04/19 05:47:10;;;;;;;;;3.00;3.00;;;;;;;;5208894;28;8790;-79
2023/04/19 05:50:01;;;;;;;;;3.00;3.00;;;;;;;;5211138;28;8806;-79
2023/04/19 05:52:53;;;;;;;;;2.00;2.00;;;;;;;;5211333;28;8801;-79
2023/04/19 05:55:25;;;;;;;;;4.00;4.00;;;;;;;;5208805;28;8815;-79
2023/04/19 05:58:00;;;;;;;;;18.20;17.20;;;;;;;;5224952;28;8816;-80
2023/04/19 06:00:51;;;;;;;;;82.40;58.60;;;;;;;;5211987;28;8802;-80
2023/04/19 06:03:25;;;;;;;;;17.80;16.80;;;;;;;;5224701;28;9612;-79
2023/04/19 06:06:16;;;;;;;;;13.40;13.40;;;;;;;;5226784;28;8814;-79
2023/04/19 06:08:50;;;;;;;;;16.00;16.00;;;;;;;;5192149;28;8777;-79
2023/04/19 06:11:22;;;;;;;;;31.40;29.80;;;;;;;;5241526;28;8801;-79
2023/04/19 06:13:53;;;;;;;;;7.00;7.00;;;;;;;;5224655;28;8878;-79
2023/04/19 06:16:25;;;;;;;;;11.00;11.00;;;;;;;;5224898;28;8794;-79
2023/04/19 06:18:57;;;;;;;;;16.80;15.00;;;;;;;;5209289;28;8794;-80
2023/04/19 06:21:30;;;;;;;;;10.00;10.00;;;;;;;;5208145;28;8801;-78
2023/04/19 06:24:02;;;;;;;;;12.20;12.20;;;;;;;;5225734;28;8826;-80
2023/04/19 06:26:35;;;;;;;;;12.20;12.20;;;;;;;;5192127;28;8880;-79
2023/04/19 06:29:07;;;;;;;;;4.00;4.00;;;;;;;;5225291;28;9524;-79
2023/04/19 06:31:40;;;;;;;;;18.60;18.60;;;;;;;;5207342;28;8801;-80
2023/04/19 06:34:11;;;;;;;;;11.80;11.20;;;;;;;;5224378;28;9579;-80
2023/04/19 06:36:43;;;;;;;;;7.00;7.00;;;;;;;;5238466;28;8907;-79
2023/04/19 06:39:16;;;;;;;;;5.60;5.60;;;;;;;;5228745;28;8992;-79
2023/04/19 06:41:48;;;;;;;;;7.40;7.00;;;;;;;;5217897;28;8797;-79
2023/04/19 06:44:21;;;;;;;;;3.60;3.60;;;;;;;;5208167;28;8805;-78
2023/04/19 06:46:53;;;;;;;;;4.00;4.00;;;;;;;;5224466;28;8847;-79
2023/04/19 06:49:44;;;;;;;;;4.40;4.40;;;;;;;;5210926;28;8781;-79
2023/04/19 06:52:16;;;;;;;;;3.40;3.40;;;;;;;;5207819;28;9547;-79
2023/04/19 06:54:48;;;;;;;;;5.00;5.00;;;;;;;;5224137;28;8821;-80
2023/04/19 06:57:20;;;;;;;;;3.80;3.80;;;;;;;;5202654;28;8797;-72
2023/04/19 06:59:54;;;;;;;;;5.00;5.00;;;;;;;;5238730;28;8807;-78
2023/04/19 07:02:25;;;;;;;;;7.60;7.20;;;;;;;;5244766;28;8763;-78
2023/04/19 07:04:56;;;;;;;;;7.80;7.80;;;;;;;;5241465;28;8873;-73
2023/04/19 07:07:27;;;;;;;;;2.80;2.80;;;;;;;;5243251;28;9482;-73
2023/04/19 07:09:58;;;;;;;;;2.75;2.75;;;;;;;;5243065;28;8786;-73
2023/04/19 07:12:29;;;;;;;;;3.75;3.75;;;;;;;;5243058;28;8790;-73
2023/04/19 07:15:00;;;;;;;;;2.20;2.20;;;;;;;;5241662;28;8888;-73
2023/04/19 07:17:35;;;;;;;;;3.20;3.20;;;;;;;;5222003;28;8908;-73
2023/04/19 07:20:06;;;;;;;;;3.75;3.25;;;;;;;;5205727;28;8828;-73
2023/04/19 07:22:37;;;;;;;;;3.00;3.00;;;;;;;;5221770;28;8797;-73
2023/04/19 07:25:09;;;;;;;;;4.00;4.00;;;;;;;;5223355;28;9640;-73
2023/04/19 07:27:58;;;;;;;;;5.00;5.00;;;;;;;;5223158;28;8820;-73
2023/04/19 07:30:29;;;;;;;;;1.67;1.67;;;;;;;;5239068;28;8807;-74
2023/04/19 07:33:03;;;;;;;;;4.00;4.00;;;;;;;;5226022;28;11305;-71
2023/04/19 07:35:34;;;;;;;;;4.40;4.40;;;;;;;;5219412;28;8845;-71
2023/04/19 07:38:05;;;;;;;;;4.25;4.25;;;;;;;;5235492;28;8787;-71
2023/04/19 07:40:36;;;;;;;;;3.00;3.00;;;;;;;;5243285;28;8811;-71
2023/04/19 07:43:07;;;;;;;;;7.75;7.75;;;;;;;;5225979;28;8891;-73
2023/04/19 07:45:39;;;;;;;;;1.00;1.00;;;;;;;;5246278;28;8904;-73
2023/04/19 07:48:10;;;;;;;;;5.75;5.75;;;;;;;;5246405;28;8868;-74
2023/04/19 07:50:41;;;;;;;;;3.00;3.00;;;;;;;;5246335;28;8786;-73
2023/04/19 07:53:12;;;;;;;;;3.33;3.33;;;;;;;;5243764;28;8828;-73
2023/04/19 07:55:44;;;;;;;;;2.00;2.00;;;;;;;;5246319;28;9533;-75
2023/04/19 07:58:15;;;;;;;;;4.50;4.50;;;;;;;;5244254;28;8818;-73
2023/04/19 08:00:46;;;;;;;;;3.00;3.00;;;;;;;;5218455;28;9612;-75
2023/04/19 08:03:17;;;;;;;;;7.50;7.50;;;;;;;;5227399;28;8817;-73
2023/04/19 08:05:48;;;;;;;;;3.25;3.00;;;;;;;;5225481;28;8804;-74
2023/04/19 08:08:19;;;;;;;;;4.00;4.00;;;;;;;;5208561;28;8840;-74
2023/04/19 08:10:54;;;;;;;;;3.00;3.00;;;;;;;;5231789;28;10194;-73
2023/04/19 08:13:25;;;;;;;;;1.25;1.25;;;;;;;;5237894;28;9118;-73
2023/04/19 08:15:56;;;;;;;;;26.50;25.75;;;;;;;;5229354;28;8919;-73
2023/04/19 08:18:27;;;;;;;;;7.75;7.75;;;;;;;;5228058;28;11600;-76
2023/04/19 08:21:16;;;;;;;;;3.50;3.50;;;;;;;;5226546;28;8817;-74
2023/04/19 08:23:47;;;;;;;;;4.00;4.00;;;;;;;;5227063;28;8817;-74
2023/04/19 08:26:18;;;;;;;;;2.67;2.67;;;;;;;;5227473;28;8817;-74
2023/04/19 08:28:51;;;;;;;;;3.00;3.00;;;;;;;;5240630;28;8813;-75
2023/04/19 08:31:22;;;;;;;;;2.75;2.75;;;;;;;;5228776;28;8904;-77
2023/04/19 08:33:52;;;;;;;;;5.00;5.00;;;;;;;;5209738;28;8956;-74
2023/04/19 08:36:23;;;;;;;;;3.75;3.75;;;;;;;;5227984;28;9947;-73
2023/04/19 08:38:54;;;;;;;;;3.50;3.50;;;;;;;;5231167;28;8810;-74
2023/04/19 08:41:25;;;;;;;;;3.33;3.33;;;;;;;;5238593;28;8805;-74
2023/04/19 08:43:57;;;;;;;;;3.75;3.75;;;;;;;;5226329;28;8821;-74
2023/04/19 08:46:29;;;;;;;;;3.25;3.25;;;;;;;;5227552;28;8774;-75
2023/04/19 08:49:01;;;;;;;;;3.00;3.00;;;;;;;;5226777;28;8807;-74
2023/04/19 08:51:32;;;;;;;;;3.00;3.00;;;;;;;;5231190;28;8789;-70
2023/04/19 08:54:04;;;;;;;;;7.50;7.50;;;;;;;;5229572;28;8794;-73
2023/04/19 08:56:54;;;;;;;;;3.50;3.50;;;;;;;;5226760;28;8774;-74
2023/04/19 08:59:25;;;;;;;;;2.00;2.00;;;;;;;;5227654;28;8778;-71
2023/04/19 09:01:59;;;;;;;;;1.25;1.25;;;;;;;;5226129;28;8804;-74
2023/04/19 09:04:30;;;;;;;;;2.00;2.00;;;;;;;;5227200;28;8837;-75
2023/04/19 09:07:01;;;;;;;;;2.25;2.25;;;;;;;;5213637;28;8803;-73
2023/04/19 09:09:34;;;;;;;;;4.00;4.00;;;;;;;;5210753;28;8828;-75
2023/04/19 09:12:16;;;;;;;;;4.00;4.00;;;;;;;;5226018;28;8777;-73
2023/04/19 09:14:47;;;;;;;;;2.00;2.00;;;;;;;;5226001;28;8825;-73
2023/04/19 09:17:18;;;;;;;;;2.25;2.25;;;;;;;;5225843;28;8798;-73
2023/04/19 09:19:49;;;;;;;;;2.00;2.00;;;;;;;;5209551;28;8800;-74
2023/04/19 09:22:20;;;;;;;;;3.75;3.75;;;;;;;;5227060;28;8791;-74
2023/04/19 09:24:51;;;;;;;;;2.33;2.33;;;;;;;;5243762;28;9564;-73
2023/04/19 09:27:33;;;;;;;;;3.50;3.50;;;;;;;;5229610;28;11442;-73
2023/04/19 09:30:05;;;;;;;;;2.00;2.00;;;;;;;;5247572;28;8875;-73
2023/04/19 09:32:56;;;;;;;;;2.00;2.00;;;;;;;;5247732;28;8787;-75
2023/04/19 09:35:40;;;;;;;;;1.50;1.50;;;;;;;;5245247;28;8854;-73
2023/04/19 09:38:11;;;;;;;;;3.00;2.25;;;;;;;;5247314;28;8807;-73
2023/04/19 09:40:42;;;;;;;;;0.00;0.00;;;;;;;;5245925;28;8771;-73
2023/04/19 09:43:22;;;;;;;;;3.00;3.00;;;;;;;;5245816;28;8810;-73
2023/04/19 09:45:53;;;;;;;;;1.50;1.50;;;;;;;;5243555;28;8778;-73
2023/04/19 09:48:24;;;;;;;;;2.00;2.00;;;;;;;;5226339;28;9543;-72
2023/04/19 09:50:56;;;;;;;;;2.00;2.00;;;;;;;;5226020;28;8766;-73
2023/04/19 09:53:29;;;;;;;;;3.00;3.00;;;;;;;;5242647;28;9807;-73
2023/04/19 09:56:00;;;;;;;;;3.00;3.00;;;;;;;;5212633;28;8893;-73
2023/04/19 09:58:32;;;;;;;;;3.75;3.75;;;;;;;;5232600;28;8778;-72
2023/04/19 10:01:03;;;;;;;;;2.33;2.33;;;;;;;;5226027;28;8793;-73
2023/04/19 10:03:34;;;;;;;;;2.00;2.00;;;;;;;;5226544;28;9403;-72
2023/04/19 10:06:06;;;;;;;;;3.00;3.00;;;;;;;;5224264;28;8774;-73
2023/04/19 10:08:37;;;;;;;;;1.50;1.50;;;;;;;;5225220;28;8798;-73
2023/04/19 10:11:09;;;;;;;;;2.00;2.00;;;;;;;;5225030;28;8855;-72
2023/04/19 10:13:40;;;;;;;;;1.00;1.00;;;;;;;;5224278;28;8998;-73
2023/04/19 10:16:11;;;;;;;;;1.50;1.50;;;;;;;;5226923;28;8924;-72
2023/04/19 10:18:42;;;;;;;;;2.50;2.50;;;;;;;;5225718;28;8796;-72
2023/04/19 10:21:32;;;;;;;;;0.00;0.00;;;;;;;;5235697;28;8925;-72
2023/04/19 10:24:03;;;;;;;;;20.25;20.25;;;;;;;;5241487;28;8795;-70
2023/04/19 10:26:53;;;;;;;;;2.00;2.00;;;;;;;;5234927;28;8875;-70
2023/04/19 10:29:56;;;;;;;;;2.00;2.00;;;;;;;;5222881;28;8788;-71
2023/04/19 10:32:37;;;;;;;;;4.25;4.25;;;;;;;;5206047;28;8819;-71
2023/04/19 10:35:19;;;;;;;;;2.00;2.00;;;;;;;;5224195;28;8857;-70
2023/04/19 10:38:05;;;;;;;;;1.25;1.25;;;;;;;;5224277;28;8806;-72
2023/04/19 10:40:51;;;;;;;;;1.50;1.50;;;;;;;;5224046;28;9508;-71
2023/04/19 10:43:23;;;;;;;;;2.50;2.00;;;;;;;;5224524;28;9601;-72
2023/04/19 10:45:57;;;;;;;;;3.75;3.75;;;;;;;;5224272;28;8789;-71
2023/04/19 10:48:29;;;;;;;;;2.50;2.50;;;;;;;;5208147;28;8785;-72
2023/04/19 10:51:06;;;;;;;;;2.00;2.00;;;;;;;;5234958;28;9525;-72
2023/04/19 10:53:44;;;;;;;;;6.00;6.00;;;;;;;;5224397;28;8840;-71
2023/04/19 10:56:19;;;;;;;;;1.00;1.00;;;;;;;;5234516;28;8921;-73
2023/04/19 10:59:13;;;;;;;;;0.75;0.75;;;;;;;;5231088;28;8833;-72
2023/04/19 11:01:48;;;;;;;;;0.00;0.00;;;;;;;;5224362;28;8820;-69
2023/04/19 11:04:50;;;;;;;;;2.75;2.75;;;;;;;;5225343;28;8839;-70
2023/04/19 11:07:21;;;;;;;;;1.00;1.00;;;;;;;;5224044;28;8792;-72
2023/04/19 11:09:52;;;;;;;;;8.25;7.50;;;;;;;;5223646;28;8802;-70
2023/04/19 11:12:23;;;;;;;;;3.00;3.00;;;;;;;;5223943;28;8864;-69
2023/04/19 11:14:58;;;;;;;;;41.75;36.75;;;;;;;;5225364;28;8803;-71
2023/04/19 11:17:30;;;;;;;;;3.00;3.00;;;;;;;;5234793;28;12242;-71
2023/04/19 11:20:09;;;;;;;;;1.75;1.75;;;;;;;;5248698;28;8767;-74
2023/04/19 11:22:46;;;;;;;;;4.50;4.50;;;;;;;;5246569;28;8784;-73
2023/04/19 11:25:19;;;;;;;;;3.75;3.75;;;;;;;;5269850;28;8809;-73
2023/04/19 11:27:52;;;;;;;;;5.50;5.50;;;;;;;;5269606;28;8776;-71
2023/04/19 11:30:30;;;;;;;;;2.75;2.75;;;;;;;;5269207;28;8773;-71
2023/04/19 11:33:02;;;;;;;;;1.75;1.75;;;;;;;;5265615;28;8822;-71
2023/04/19 11:35:33;;;;;;;;;1.00;1.00;;;;;;;;5248225;28;8827;-71
2023/04/19 11:38:22;;;;;;;;;6.25;6.25;;;;;;;;5250870;28;8788;-70
2023/04/19 11:41:00;;;;;;;;;1.33;1.33;;;;;;;;5231584;28;8892;-72
2023/04/19 11:43:34;;;;;;;;;0.00;0.00;;;;;;;;5248331;28;9029;-72
2023/04/19 11:46:05;;;;;;;;;8.50;8.50;;;;;;;;5249220;28;8785;-70
2023/04/19 11:48:37;;;;;;;;;1.00;1.00;;;;;;;;5231378;28;9631;-70
2023/04/19 11:51:08;;;;;;;;;0.50;0.50;;;;;;;;5246998;28;8771;-70
2023/04/19 11:53:40;;;;;;;;;28.20;28.20;;;;;;;;5227816;28;8793;-69
2023/04/19 11:56:13;;;;;;;;;2.25;2.25;;;;;;;;5245187;28;8787;-70
2023/04/19 11:58:47;;;;;;;;;2.00;2.00;;;;;;;;5249125;28;8888;-70
2023/04/19 12:01:19;;;;;;;;;1.25;1.25;;;;;;;;5213744;28;8793;-70
2023/04/19 12:03:51;;;;;;;;;2.00;2.00;;;;;;;;5228311;28;8825;-70
2023/04/19 12:06:22;;;;;;;;;3.50;3.50;;;;;;;;5227364;28;8785;-70
2023/04/19 12:08:54;;;;;;;;;2.00;2.00;;;;;;;;5228426;28;8819;-73
2023/04/19 12:11:40;;;;;;;;;1.25;1.25;;;;;;;;5246043;28;8817;-70
2023/04/19 12:14:12;;;;;;;;;1.00;1.00;;;;;;;;5239194;28;8914;-71
2023/04/19 12:16:46;;;;;;;;;7.00;7.00;;;;;;;;5225237;28;8840;-73
2023/04/19 12:19:19;;;;;;;;;1.25;1.25;;;;;;;;5226843;28;8833;-73
2023/04/19 12:21:50;;;;;;;;;1.25;1.25;;;;;;;;5245742;28;8794;-72
2023/04/19 12:24:21;;;;;;;;;2.50;2.50;;;;;;;;5245588;28;8815;-72
2023/04/19 12:26:56;;;;;;;;;0.75;0.75;;;;;;;;5245496;28;8799;-72
2023/04/19 12:29:27;;;;;;;;;1.50;1.50;;;;;;;;5246366;28;8825;-69
2023/04/19 12:31:58;;;;;;;;;1.50;1.50;;;;;;;;5220070;28;8801;-71
2023/04/19 12:34:29;;;;;;;;;0.00;0.00;;;;;;;;5200393;28;8841;-71
2023/04/19 12:37:02;;;;;;;;;2.00;2.00;;;;;;;;5227580;28;8785;-71
2023/04/19 12:39:33;;;;;;;;;0.25;0.25;;;;;;;;5226470;28;9528;-70
2023/04/19 12:42:05;;;;;;;;;0.75;0.75;;;;;;;;5210716;28;8800;-70
2023/04/19 12:44:36;;;;;;;;;1.00;1.00;;;;;;;;5209678;28;8809;-70
2023/04/19 12:47:06;;;;;;;;;2.00;2.00;;;;;;;;5227781;28;8790;-71
2023/04/19 12:49:37;;;;;;;;;3.25;3.25;;;;;;;;5226369;28;8802;-70
2023/04/19 12:52:08;;;;;;;;;1.67;1.67;;;;;;;;5227779;28;8778;-70
2023/04/19 12:54:39;;;;;;;;;2.00;2.00;;;;;;;;5235651;28;8815;-70
2023/04/19 12:57:10;;;;;;;;;4.75;4.75;;;;;;;;5247296;28;8794;-70
2023/04/19 12:59:41;;;;;;;;;1.33;1.33;;;;;;;;5246826;28;8779;-70
2023/04/19 13:02:12;;;;;;;;;0.00;0.00;;;;;;;;5214266;28;11442;-70
2023/04/19 13:04:43;;;;;;;;;0.00;0.00;;;;;;;;5225657;28;8818;-71
2023/04/19 13:07:14;;;;;;;;;4.67;4.67;;;;;;;;5227347;28;9422;-72
2023/04/19 13:09:45;;;;;;;;;7.50;7.50;;;;;;;;5227346;28;8778;-73
2023/04/19 13:12:16;;;;;;;;;5.67;5.67;;;;;;;;5226934;28;8789;-71
2023/04/19 13:14:50;;;;;;;;;9.75;9.50;;;;;;;;5238539;28;11011;-72
2023/04/19 13:17:21;;;;;;;;;13.00;12.25;;;;;;;;5229995;28;9526;-71
2023/04/19 13:19:52;;;;;;;;;12.75;12.00;;;;;;;;5246519;28;8822;-71
2023/04/19 13:22:41;;;;;;;;;42.00;36.40;;;;;;;;5225916;28;8900;-72
2023/04/19 13:25:12;;;;;;;;;9.25;9.25;;;;;;;;5226821;28;8955;-72
2023/04/19 13:27:45;;;;;;;;;4.33;4.33;;;;;;;;5233414;28;8884;-72
2023/04/19 13:30:34;;;;;;;;;9.00;9.00;;;;;;;;5243070;28;11531;-71
2023/04/19 13:33:05;;;;;;;;;3.75;3.75;;;;;;;;5246149;28;8787;-72
2023/04/19 13:35:36;;;;;;;;;0.00;0.00;;;;;;;;5244281;28;8849;-73
2023/04/19 13:38:07;;;;;;;;;0.33;0.33;;;;;;;;5229995;28;8795;-71
2023/04/19 13:40:37;;;;;;;;;1.00;1.00;;;;;;;;5245417;28;8837;-73
2023/04/19 13:43:08;;;;;;;;;3.33;3.33;;;;;;;;5245416;28;8795;-72
2023/04/19 13:45:39;;;;;;;;;0.50;0.50;;;;;;;;5229097;28;10711;-72
2023/04/19 13:48:10;;;;;;;;;39.20;34.80;;;;;;;;5228839;28;8790;-72
2023/04/19 13:50:41;;;;;;;;;15.75;15.75;;;;;;;;5244247;28;8884;-71
2023/04/19 13:53:12;;;;;;;;;5.00;5.00;;;;;;;;5246938;28;9394;-71
2023/04/19 13:55:43;;;;;;;;;5.75;5.50;;;;;;;;5245856;28;10561;-73
2023/04/19 13:58:14;;;;;;;;;19.60;19.60;;;;;;;;5240367;28;9547;-73
2023/04/19 14:00:47;;;;;;;;;6.00;6.00;;;;;;;;5236368;28;9521;-72
2023/04/19 14:03:18;;;;;;;;;7.00;7.00;;;;;;;;5245984;28;8803;-73
2023/04/19 14:05:49;;;;;;;;;6.50;6.50;;;;;;;;5246502;28;8809;-72
2023/04/19 14:08:20;;;;;;;;;4.00;4.00;;;;;;;;5237096;28;8811;-72
2023/04/19 14:11:09;;;;;;;;;2.50;2.50;;;;;;;;5245177;28;8783;-71
2023/04/19 14:13:40;;;;;;;;;3.00;3.00;;;;;;;;5212012;28;8795;-70
2023/04/19 14:16:11;;;;;;;;;2.50;2.50;;;;;;;;5220682;28;8809;-70
2023/04/19 14:18:42;;;;;;;;;4.00;4.00;;;;;;;;5207919;28;8793;-71
2023/04/19 14:21:14;;;;;;;;;2.25;2.25;;;;;;;;5224509;28;8805;-71
2023/04/19 14:23:44;;;;;;;;;4.33;4.00;;;;;;;;5245401;28;8799;-71
2023/04/19 14:26:15;;;;;;;;;6.00;6.00;;;;;;;;5244002;28;9394;-71
2023/04/19 14:28:47;;;;;;;;;4.00;4.00;;;;;;;;5225536;28;8796;-70
2023/04/19 14:31:18;;;;;;;;;4.00;4.00;;;;;;;;5225249;28;8813;-71
2023/04/19 14:33:49;;;;;;;;;4.00;4.00;;;;;;;;5223779;28;8810;-70
2023/04/19 14:36:20;;;;;;;;;6.00;6.00;;;;;;;;5224540;28;8786;-71
2023/04/19 14:38:50;;;;;;;;;8.25;8.25;;;;;;;;5208089;28;9508;-70
2023/04/19 14:41:21;;;;;;;;;15.75;15.75;;;;;;;;5224140;28;8790;-71
2023/04/19 14:43:54;;;;;;;;;16.50;16.50;;;;;;;;5225099;28;8833;-71
2023/04/19 14:46:26;;;;;;;;;5.50;5.50;;;;;;;;5243213;28;9514;-70
2023/04/19 14:49:02;;;;;;;;;11.00;11.00;;;;;;;;5232724;28;8805;-70
2023/04/19 14:51:33;;;;;;;;;16.00;16.00;;;;;;;;5225433;28;11243;-71
2023/04/19 14:54:04;;;;;;;;;4.00;4.00;;;;;;;;5227238;28;8940;-71
2023/04/19 14:56:38;;;;;;;;;7.75;6.75;;;;;;;;5240299;28;8802;-73
2023/04/19 14:59:09;;;;;;;;;8.50;8.50;;;;;;;;5216488;28;8798;-70
2023/04/19 15:01:40;;;;;;;;;9.00;9.00;;;;;;;;5225219;28;8782;-71
2023/04/19 15:04:11;;;;;;;;;16.00;16.00;;;;;;;;5218572;28;8805;-71
2023/04/19 15:06:42;;;;;;;;;14.33;14.33;;;;;;;;5242129;28;9498;-72
2023/04/19 15:09:13;;;;;;;;;30.00;29.00;;;;;;;;5244407;28;8791;-72
2023/04/19 15:11:44;;;;;;;;;14.00;14.00;;;;;;;;5228952;28;8794;-74
2023/04/19 15:14:15;;;;;;;;;17.75;17.50;;;;;;;;5223840;28;9719;-72
2023/04/19 15:16:46;;;;;;;;;18.50;18.50;;;;;;;;5224970;28;8863;-72
2023/04/19 15:19:16;;;;;;;;;48.00;40.75;;;;;;;;5223830;28;9504;-74
2023/04/19 15:21:47;;;;;;;;;58.75;47.00;;;;;;;;5230511;28;11099;-75
2023/04/19 15:24:21;;;;;;;;;24.75;24.25;;;;;;;;5245102;28;11490;-72
2023/04/19 15:26:52;;;;;;;;;20.00;20.00;;;;;;;;5227860;28;8803;-70
2023/04/19 15:29:23;;;;;;;;;16.75;16.25;;;;;;;;5236314;28;9092;-72
2023/04/19 15:31:54;;;;;;;;;14.75;14.75;;;;;;;;5248621;28;8784;-71
2023/04/19 15:34:25;;;;;;;;;16.50;16.50;;;;;;;;5245187;28;8799;-71